Time;durP1;ratioP1;P1;durP2;ratioP2;P2;SDS_P1;SDS_P2;PMS_P1;PMS_P2;Temp;Humidity;BMP_temperature;BMP_pressure;BME280_temperature;BME280_humidity;BME280_pressure;Samples;Min_cycle;Max_cycle;Signal;HPM_P1;HPM_P2
2021/04/28 00:00:22;;;;;;;14.18;10.10;;;;;;;8.21;100.00;95258.56;4970441;28;20071;-62
2021/04/28 00:02:50;;;;;;;14.60;10.55;;;;;;;7.96;100.00;95257.66;4970642;28;20074;-65
2021/04/28 00:05:18;;;;;;;13.02;10.35;;;;;;;7.84;100.00;95262.38;4971119;28;20062;-64
2021/04/28 00:07:46;;;;;;;14.88;11.13;;;;;;;7.74;100.00;95266.06;4973283;28;20065;-64
2021/04/28 00:10:16;;;;;;;14.82;11.10;;;;;;;7.84;100.00;95264.16;4972570;28;20483;-63
2021/04/28 00:12:43;;;;;;;13.47;10.57;;;;;;;7.77;100.00;95250.84;4975470;28;20082;-64
2021/04/28 00:15:16;;;;;;;15.68;11.00;;;;;;;7.63;100.00;95255.84;4975261;28;20461;-63
2021/04/28 00:17:43;;;;;;;15.25;10.82;;;;;;;7.46;100.00;95250.50;4976377;28;20602;-63
2021/04/28 00:20:13;;;;;;;14.50;10.43;;;;;;;7.31;100.00;95258.13;4966169;28;20074;-64
2021/04/28 00:22:41;;;;;;;16.73;11.88;;;;;;;7.29;100.00;95256.63;4971274;28;20623;-64
2021/04/28 00:25:12;;;;;;;15.95;11.00;;;;;;;7.35;100.00;95256.84;4977896;28;20085;-65
2021/04/28 00:27:40;;;;;;;14.77;11.10;;;;;;;7.39;100.00;95252.13;4970345;28;20674;-64
2021/04/28 00:30:09;;;;;;;14.73;10.65;;;;;;;7.38;100.00;95253.91;4971162;28;20525;-60
2021/04/28 00:32:39;;;;;;;13.50;10.95;;;;;;;7.36;100.00;95249.78;4981366;28;20070;-61
2021/04/28 00:35:10;;;;;;;14.75;11.40;;;;;;;7.26;100.00;95249.94;4973319;28;20070;-65
2021/04/28 00:37:37;;;;;;;15.35;10.65;;;;;;;7.19;100.00;95253.28;4972312;28;20066;-64
2021/04/28 00:40:06;;;;;;;14.27;10.88;;;;;;;7.20;100.00;95241.84;4977889;28;20086;-64
2021/04/28 00:42:34;;;;;;;18.50;11.00;;;;;;;7.22;100.00;95250.38;4975275;28;20477;-65
2021/04/28 00:45:04;;;;;;;13.32;11.13;;;;;;;7.23;100.00;95238.94;4977270;28;20066;-64
2021/04/28 00:47:31;;;;;;;16.40;11.13;;;;;;;7.16;100.00;95246.59;4972305;28;20070;-64
2021/04/28 00:50:00;;;;;;;16.30;12.35;;;;;;;7.17;100.00;95240.34;4975656;28;20089;-64
2021/04/28 00:52:27;;;;;;;15.32;11.50;;;;;;;7.24;100.00;95240.56;4970819;28;20154;-63
2021/04/28 00:54:55;;;;;;;16.83;11.60;;;;;;;7.26;100.00;95236.81;4978919;28;20556;-64
2021/04/28 00:57:23;;;;;;;19.42;11.77;;;;;;;7.25;100.00;95243.00;4962798;28;20081;-62
2021/04/28 00:59:51;;;;;;;17.40;11.32;;;;;;;7.24;100.00;95237.94;4965805;28;20066;-65
2021/04/28 01:02:18;;;;;;;14.55;11.57;;;;;;;7.15;100.00;95239.66;4970926;28;20066;-65
2021/04/28 01:04:46;;;;;;;16.65;11.40;;;;;;;7.13;100.00;95239.84;4971106;28;20078;-64
2021/04/28 01:07:16;;;;;;;13.38;10.55;;;;;;;7.11;100.00;95246.19;4971210;28;20537;-64
2021/04/28 01:09:44;;;;;;;13.57;10.80;;;;;;;7.06;100.00;95241.44;4976468;28;20116;-64
2021/04/28 01:12:12;;;;;;;16.05;11.43;;;;;;;7.00;100.00;95243.84;4976631;28;20074;-64
2021/04/28 01:14:40;;;;;;;13.10;9.70;;;;;;;6.78;100.00;95243.34;4987648;28;20042;-65
2021/04/28 01:17:10;;;;;;;16.23;11.15;;;;;;;6.77;100.00;95236.44;4970196;28;20043;-64
2021/04/28 01:19:39;;;;;;;13.23;10.30;;;;;;;6.74;100.00;95244.59;4963256;28;20063;-64
2021/04/28 01:22:07;;;;;;;15.20;11.18;;;;;;;6.51;100.00;95249.50;4986251;28;20093;-64
2021/04/28 01:24:36;;;;;;;14.32;11.55;;;;;;;6.28;100.00;95243.84;4967540;28;20485;-64
2021/04/28 01:27:10;;;;;;;15.57;11.57;;;;;;;6.37;100.00;95236.91;4962596;28;20066;-63
2021/04/28 01:29:39;;;;;;;16.88;11.52;;;;;;;6.28;100.00;95243.84;4977302;28;20070;-62
2021/04/28 01:32:08;;;;;;;15.93;11.55;;;;;;;6.30;100.00;95249.78;4969646;28;20077;-64
2021/04/28 01:34:37;;;;;;;19.45;12.80;;;;;;;6.30;100.00;95244.53;4964928;28;20077;-64
2021/04/28 01:37:05;;;;;;;13.70;10.95;;;;;;;6.31;100.00;95247.97;4971067;28;20086;-64
2021/04/28 01:39:35;;;;;;;14.75;11.40;;;;;;;6.12;100.00;95241.06;4969777;28;20085;-62
2021/04/28 01:42:03;;;;;;;18.42;12.25;;;;;;;6.26;100.00;95240.53;4981384;28;20074;-65
2021/04/28 01:44:31;;;;;;;14.75;11.40;;;;;;;6.28;100.00;95241.22;4969042;28;20066;-63
2021/04/28 01:47:00;;;;;;;18.75;12.32;;;;;;;6.28;100.00;95238.63;4971988;28;20486;-63
2021/04/28 01:49:28;;;;;;;15.43;12.23;;;;;;;6.39;100.00;95233.16;4984033;28;20516;-63
2021/04/28 01:51:57;;;;;;;17.85;11.70;;;;;;;6.37;100.00;95229.88;4979595;28;20078;-63
2021/04/28 01:54:25;;;;;;;16.10;11.55;;;;;;;6.28;100.00;95238.63;4966970;28;20061;-63
2021/04/28 01:56:54;;;;;;;15.18;11.95;;;;;;;6.30;100.00;95234.06;4988009;28;20063;-63
2021/04/28 01:59:22;;;;;;;17.17;12.50;;;;;;;6.34;100.00;95243.25;4974214;28;20193;-63
2021/04/28 02:01:52;;;;;;;20.00;12.98;;;;;;;6.24;100.00;95245.13;4973159;28;20070;-64
2021/04/28 02:04:20;;;;;;;17.00;12.52;;;;;;;6.25;100.00;95246.75;4973821;28;20173;-63
2021/04/28 02:06:48;;;;;;;16.13;12.15;;;;;;;5.82;100.00;95243.00;4974836;28;20461;-63
2021/04/28 02:09:16;;;;;;;16.95;12.07;;;;;;;5.97;100.00;95240.75;4968363;28;20522;-63
2021/04/28 02:11:44;;;;;;;16.63;12.27;;;;;;;5.94;100.00;95241.03;4977124;28;20070;-60
2021/04/28 02:14:14;;;;;;;21.52;12.90;;;;;;;5.92;100.00;95235.97;4964719;28;20547;-61
2021/04/28 02:16:42;;;;;;;17.02;12.15;;;;;;;5.89;100.00;95236.22;4958453;28;20074;-62
2021/04/28 02:19:11;;;;;;;15.85;12.45;;;;;;;5.92;100.00;95230.72;4971673;28;20065;-63
2021/04/28 02:21:40;;;;;;;18.40;12.55;;;;;;;5.86;100.00;95233.88;4968423;28;20073;-62
2021/04/28 02:24:10;;;;;;;17.83;13.43;;;;;;;5.85;100.00;95224.41;4966413;28;20054;-61
2021/04/28 02:26:38;;;;;;;16.88;12.45;;;;;;;5.86;100.00;95228.66;4974345;28;20079;-63
2021/04/28 02:29:05;;;;;;;16.25;12.13;;;;;;;5.85;100.00;95221.78;4967735;28;20077;-62
2021/04/28 02:31:35;;;;;;;17.50;12.70;;;;;;;5.81;100.00;95214.34;4958225;28;20059;-60
2021/04/28 02:34:04;;;;;;;16.30;12.43;;;;;;;5.79;100.00;95224.16;4975769;28;20157;-62
2021/04/28 02:36:33;;;;;;;16.63;12.63;;;;;;;5.64;100.00;95229.03;4969448;28;20461;-62
2021/04/28 02:39:06;;;;;;;21.25;14.07;;;;;;;5.29;100.00;95235.75;4983707;28;20081;-62
2021/04/28 02:41:33;;;;;;;18.10;12.60;;;;;;;5.35;100.00;95244.84;4978233;28;20069;-63
2021/04/28 02:44:02;;;;;;;17.20;13.52;;;;;;;5.11;100.00;95242.69;4967917;28;20734;-62
2021/04/28 02:46:29;;;;;;;18.77;13.57;;;;;;;5.16;100.00;95230.03;4965045;28;20059;-65
2021/04/28 02:48:58;;;;;;;18.23;13.23;;;;;;;5.04;100.00;95247.66;4985891;28;20078;-64
2021/04/28 02:51:27;;;;;;;18.00;13.60;;;;;;;4.87;100.00;95232.69;4970031;28;20685;-64
2021/04/28 02:53:55;;;;;;;21.27;12.98;;;;;;;4.89;100.00;95230.78;4982438;28;21062;-65
2021/04/28 02:56:23;;;;;;;20.63;14.57;;;;;;;4.72;100.00;95227.91;4974084;28;20066;-64
2021/04/28 02:58:51;;;;;;;19.92;14.43;;;;;;;4.72;100.00;95224.50;4969937;28;20070;-65
2021/04/28 03:01:19;;;;;;;17.63;13.60;;;;;;;4.88;100.00;95221.28;4980940;28;20082;-61
2021/04/28 03:03:47;;;;;;;22.63;13.75;;;;;;;4.87;100.00;95228.31;4982874;28;20074;-65
2021/04/28 03:06:16;;;;;;;17.75;13.50;;;;;;;5.00;100.00;95215.78;4968261;28;20525;-63
2021/04/28 03:08:46;;;;;;;19.20;14.57;;;;;;;4.82;100.00;95222.69;4977339;28;20071;-64
2021/04/28 03:11:14;;;;;;;23.27;14.33;;;;;;;4.96;100.00;95224.84;4980283;28;20066;-64
2021/04/28 03:13:42;;;;;;;21.77;14.57;;;;;;;5.00;100.00;95220.19;4968787;28;20109;-65
2021/04/28 03:16:10;;;;;;;18.00;13.65;;;;;;;5.02;100.00;95218.22;4966324;28;20047;-63
2021/04/28 03:18:38;;;;;;;17.50;14.10;;;;;;;4.96;100.00;95214.41;4972857;28;20086;-64
2021/04/28 03:21:07;;;;;;;19.08;13.88;;;;;;;4.96;100.00;95218.81;4971115;28;20493;-62
2021/04/28 03:23:36;;;;;;;18.25;14.23;;;;;;;4.89;100.00;95217.72;4964923;28;20062;-63
2021/04/28 03:26:04;;;;;;;20.45;14.27;;;;;;;4.87;100.00;95220.47;4970856;28;20139;-64
2021/04/28 03:28:31;;;;;;;22.98;13.27;;;;;;;4.88;100.00;95221.28;4970089;28;20074;-63
2021/04/28 03:30:59;;;;;;;20.48;13.57;;;;;;;4.86;100.00;95223.22;4968242;28;20093;-63
2021/04/28 03:33:26;;;;;;;19.90;14.68;;;;;;;4.85;100.00;95222.41;4967189;28;20404;-65
2021/04/28 03:35:55;;;;;;;18.58;13.48;;;;;;;4.79;100.00;95228.19;4976483;28;20090;-63
2021/04/28 03:38:23;;;;;;;21.02;13.90;;;;;;;4.47;100.00;95228.47;4972823;28;20067;-64
2021/04/28 03:40:51;;;;;;;21.92;14.45;;;;;;;4.42;100.00;95228.06;4972342;28;20058;-64
2021/04/28 03:43:19;;;;;;;17.75;14.00;;;;;;;4.40;100.00;95228.19;4985536;28;20090;-64
2021/04/28 03:45:47;;;;;;;20.63;14.45;;;;;;;4.44;100.00;95229.59;4976051;28;20082;-63
2021/04/28 03:48:14;;;;;;;24.02;14.98;;;;;;;4.39;100.00;95229.16;4969332;28;20071;-63
2021/04/28 03:50:42;;;;;;;20.17;14.23;;;;;;;4.25;100.00;95234.78;4964472;28;20078;-64
2021/04/28 03:53:09;;;;;;;18.75;14.18;;;;;;;4.13;100.00;95236.72;4970978;28;20062;-64
2021/04/28 03:55:37;;;;;;;20.08;14.40;;;;;;;4.20;100.00;95237.00;4991186;23;20518;-57
2021/04/28 03:58:06;;;;;;;24.90;14.70;;;;;;;4.46;100.00;95235.47;5001323;28;20459;-51
2021/04/28 04:00:33;;;;;;;19.88;15.23;;;;;;;4.41;100.00;95236.88;5008697;28;20065;-56
2021/04/28 04:03:01;;;;;;;27.40;15.65;;;;;;;4.36;100.00;95231.22;5008736;28;20069;-55
2021/04/28 04:05:29;;;;;;;21.25;15.82;;;;;;;4.04;100.00;95242.72;5005925;28;20482;-53
2021/04/28 04:07:57;;;;;;;19.33;14.77;;;;;;;4.05;100.00;95233.94;5010520;28;20074;-57
2021/04/28 04:10:24;;;;;;;22.90;14.88;;;;;;;4.05;100.00;95239.97;5006429;28;20065;-56
2021/04/28 04:12:52;;;;;;;24.83;15.80;;;;;;;4.12;100.00;95234.22;5011778;28;20081;-57
2021/04/28 04:15:21;;;;;;;25.25;14.80;;;;;;;4.31;100.00;95236.03;5006751;28;20073;-53
2021/04/28 04:17:49;;;;;;;25.65;15.82;;;;;;;4.27;100.00;95238.09;5007957;28;20502;-55
2021/04/28 04:20:16;;;;;;;19.88;14.65;;;;;;;4.35;100.00;95235.63;5006520;28;20066;-49
2021/04/28 04:22:44;;;;;;;21.95;14.82;;;;;;;4.77;100.00;95237.94;5007103;28;20076;-54
2021/04/28 04:25:12;;;;;;;23.90;14.60;;;;;;;4.90;100.00;95235.84;4990646;28;20508;-53
2021/04/28 04:27:40;;;;;;;19.48;14.32;;;;;;;5.09;100.00;95231.56;5010781;28;20536;-52
2021/04/28 04:30:10;;;;;;;20.20;14.57;;;;;;;5.21;100.00;95239.09;5005013;28;20113;-53
2021/04/28 04:32:38;;;;;;;18.03;13.87;;;;;;;5.26;100.00;95233.44;5008305;28;20178;-54
2021/04/28 04:35:07;;;;;;;21.95;13.75;;;;;;;5.23;100.00;95238.97;5006619;28;21329;-55
2021/04/28 04:37:35;;;;;;;19.52;13.48;;;;;;;5.43;100.00;95235.28;5005137;28;20079;-55
2021/04/28 04:40:03;;;;;;;21.20;14.10;;;;;;;5.71;100.00;95232.69;5006721;28;20089;-54
2021/04/28 04:42:30;;;;;;;24.17;14.27;;;;;;;5.86;100.00;95228.66;5009073;28;20080;-52
2021/04/28 04:44:58;;;;;;;20.90;14.77;;;;;;;5.86;100.00;95223.41;5008586;28;20066;-56
2021/04/28 04:47:26;;;;;;;22.58;15.63;;;;;;;6.01;100.00;95236.84;5005519;28;20224;-51
2021/04/28 04:49:54;;;;;;;20.88;14.40;;;;;;;5.91;100.00;95229.03;5008710;28;20076;-55
2021/04/28 04:52:21;;;;;;;24.92;15.05;;;;;;;6.85;100.00;95236.53;5004132;28;20525;-55
2021/04/28 04:54:49;;;;;;;22.63;15.35;;;;;;;8.48;100.00;95225.16;5009817;28;20077;-58
2021/04/28 04:57:16;;;;;;;19.50;15.10;;;;;;;9.86;87.97;95218.09;5005976;28;20082;-56
2021/04/28 04:59:43;;;;;;;19.75;13.73;;;;;;;10.81;76.61;95226.66;5007960;28;20065;-57
2021/04/28 05:02:11;;;;;;;16.92;12.15;;;;;;;11.72;67.71;95226.66;5004397;28;20065;-54
2021/04/28 05:04:39;;;;;;;18.70;12.13;;;;;;;12.04;65.38;95221.03;5008122;28;20066;-54
2021/04/28 05:07:07;;;;;;;15.90;11.98;;;;;;;12.33;65.03;95224.63;5005848;28;20088;-54
2021/04/28 05:09:35;;;;;;;15.88;12.02;;;;;;;12.21;64.17;95223.44;5002253;28;20108;-58
2021/04/28 05:12:02;;;;;;;14.50;11.50;;;;;;;13.12;60.58;95218.50;5005999;28;20070;-55
2021/04/28 05:14:31;;;;;;;13.02;10.35;;;;;;;12.76;59.97;95216.72;5007810;28;20659;-51
2021/04/28 05:16:59;;;;;;;14.07;11.50;;;;;;;13.20;58.49;95216.50;5004815;28;20078;-58
2021/04/28 05:19:26;;;;;;;16.92;11.38;;;;;;;13.48;58.09;95218.38;5007221;28;20069;-57
2021/04/28 05:21:54;;;;;;;13.20;10.75;;;;;;;13.63;57.48;95213.00;5009202;28;20076;-54
2021/04/28 05:24:24;;;;;;;13.70;10.45;;;;;;;12.70;61.75;95228.06;5007280;28;20078;-55
2021/04/28 05:26:51;;;;;;;16.17;10.52;;;;;;;13.73;55.99;95214.28;5007966;28;20080;-53
2021/04/28 05:29:18;;;;;;;14.63;10.93;;;;;;;12.67;60.71;95223.97;5005107;28;20463;-52
2021/04/28 05:31:46;;;;;;;14.85;10.30;;;;;;;13.11;60.53;95217.69;5007391;28;20554;-54
2021/04/28 05:34:14;;;;;;;16.08;11.38;;;;;;;12.72;61.02;95226.03;5005223;28;20085;-53
2021/04/28 05:36:42;;;;;;;14.68;10.88;;;;;;;10.76;78.29;95225.53;5009746;28;20096;-54
2021/04/28 05:39:09;;;;;;;15.02;11.38;;;;;;;10.52;82.89;95232.59;5004698;28;20561;-53
2021/04/28 05:41:39;;;;;;;13.25;11.18;;;;;;;10.42;86.50;95226.75;5008590;28;20073;-50
2021/04/28 05:44:07;;;;;;;15.40;11.60;;;;;;;9.93;93.75;95229.59;5004228;28;20061;-53
2021/04/28 05:46:35;;;;;;;16.27;11.40;;;;;;;9.96;91.82;95226.63;5007443;28;20073;-53
2021/04/28 05:49:04;;;;;;;15.43;11.30;;;;;;;9.40;100.00;95231.06;5004861;28;20077;-56
2021/04/28 05:51:32;;;;;;;13.95;11.02;;;;;;;9.55;100.00;95237.28;5008381;28;20081;-58
2021/04/28 05:54:00;;;;;;;14.75;11.20;;;;;;;9.19;100.00;95244.75;5004577;28;20069;-54
2021/04/28 05:56:28;;;;;;;16.05;12.48;;;;;;;9.31;100.00;95238.16;5006901;28;20081;-57
2021/04/28 05:58:56;;;;;;;14.07;11.05;;;;;;;9.06;100.00;95247.06;5003874;28;20061;-55
2021/04/28 06:01:23;;;;;;;15.68;11.70;;;;;;;8.72;100.00;95240.16;5006993;28;20073;-54
2021/04/28 06:03:51;;;;;;;17.38;11.70;;;;;;;8.91;100.00;95237.22;4995524;28;20080;-52
2021/04/28 06:06:18;;;;;;;15.75;12.73;;;;;;;9.44;100.00;95227.13;5006528;28;20574;-54
2021/04/28 06:08:46;;;;;;;16.88;12.75;;;;;;;9.24;100.00;95239.81;4996782;28;20072;-50
2021/04/28 06:11:13;;;;;;;17.40;13.05;;;;;;;9.33;100.00;95230.91;5007872;28;20066;-54
2021/04/28 06:13:40;;;;;;;15.05;11.88;;;;;;;9.35;100.00;95230.75;5005979;28;20073;-48
2021/04/28 06:16:09;;;;;;;17.08;12.50;;;;;;;9.43;100.00;95223.66;5004762;28;20524;-52
2021/04/28 06:18:36;;;;;;;16.80;12.07;;;;;;;9.50;100.00;95214.13;5006348;28;20089;-48
2021/04/28 06:21:05;;;;;;;17.02;13.23;;;;;;;9.21;100.00;95227.78;5004260;28;20073;-51
2021/04/28 06:23:33;;;;;;;14.85;12.20;;;;;;;9.58;100.00;95222.97;5007254;28;20500;-56
2021/04/28 06:26:01;;;;;;;19.05;12.82;;;;;;;9.86;100.00;95224.19;5008380;28;20081;-53
2021/04/28 06:28:29;;;;;;;15.95;11.75;;;;;;;9.90;100.00;95229.94;5006930;28;20073;-50
2021/04/28 06:30:57;;;;;;;17.02;11.75;;;;;;;10.05;100.00;95228.25;5005748;28;20092;-53
2021/04/28 06:33:25;;;;;;;19.40;12.32;;;;;;;9.97;100.00;95229.06;5005648;28;20070;-57
2021/04/28 06:35:53;;;;;;;17.60;12.45;;;;;;;10.40;99.22;95231.38;5003455;28;20111;-56
2021/04/28 06:38:21;;;;;;;14.80;12.65;;;;;;;10.46;96.84;95233.31;5005749;28;20065;-53
2021/04/28 06:40:48;;;;;;;17.10;13.43;;;;;;;10.54;96.29;95227.19;5003083;28;20069;-58
2021/04/28 06:43:33;;;;;;;17.42;12.60;;;;;;;10.36;98.24;95230.91;4998823;28;20069;-53
2021/04/28 06:46:07;;;;;;;19.58;12.95;;;;;;;10.72;93.29;95229.53;5003237;28;20081;-55
2021/04/28 06:48:35;;;;;;;15.80;11.88;;;;;;;11.01;91.75;95228.78;5001523;28;20454;-57
2021/04/28 06:51:02;;;;;;;19.60;12.90;;;;;;;11.30;89.50;95233.34;5003373;28;20065;-54
2021/04/28 06:53:30;;;;;;;16.05;12.57;;;;;;;11.10;90.77;95238.28;5005015;28;20069;-55
2021/04/28 06:55:58;;;;;;;15.95;12.63;;;;;;;11.16;89.10;95229.66;5002247;28;20528;-53
2021/04/28 06:58:26;;;;;;;16.92;12.52;;;;;;;11.44;89.82;95224.63;5006233;28;20073;-53
2021/04/28 07:00:53;;;;;;;17.85;12.40;;;;;;;11.51;83.76;95220.25;5005510;28;20103;-57
2021/04/28 07:03:21;;;;;;;17.55;12.60;;;;;;;12.09;81.69;95225.75;5006299;28;20072;-57
2021/04/28 07:05:49;;;;;;;18.27;12.13;;;;;;;11.97;82.51;95227.22;5006406;28;20062;-56
2021/04/28 07:08:17;;;;;;;18.20;12.23;;;;;;;11.51;85.96;95228.19;5004462;28;20077;-56
2021/04/28 07:10:44;;;;;;;17.67;11.32;;;;;;;12.15;80.50;95221.53;5005437;28;20073;-52
2021/04/28 07:13:12;;;;;;;16.20;11.57;;;;;;;11.77;85.68;95232.22;5003693;28;20543;-57
2021/04/28 07:15:39;;;;;;;16.55;12.70;;;;;;;12.44;80.11;95224.13;5006992;28;20078;-53
2021/04/28 07:18:07;;;;;;;14.88;11.68;;;;;;;12.48;79.56;95228.03;5002693;28;20058;-54
2021/04/28 07:20:35;;;;;;;17.13;11.63;;;;;;;12.75;78.09;95226.50;5006059;28;20061;-55
2021/04/28 07:23:03;;;;;;;15.80;11.55;;;;;;;13.40;71.64;95227.28;5002324;28;20089;-57
2021/04/28 07:25:31;;;;;;;16.92;12.32;;;;;;;13.81;68.89;95226.56;5005136;28;20111;-56
2021/04/28 07:27:58;;;;;;;14.30;11.27;;;;;;;13.66;70.28;95225.81;5007180;28;20088;-56
2021/04/28 07:30:26;;;;;;;16.65;11.82;;;;;;;14.13;65.42;95226.91;5007218;28;20075;-53
2021/04/28 07:32:53;;;;;;;16.35;11.25;;;;;;;14.12;66.35;95226.09;5005991;28;20550;-57
2021/04/28 07:35:22;;;;;;;17.17;10.77;;;;;;;14.12;65.24;95226.09;5011916;28;20072;-55
2021/04/28 07:37:50;;;;;;;15.40;11.30;;;;;;;13.95;66.46;95235.41;5011097;28;20439;-55
2021/04/28 07:40:21;;;;;;;16.02;10.75;;;;;;;14.29;63.56;95229.25;5010714;28;20066;-54
2021/04/28 07:42:49;;;;;;;12.00;10.43;;;;;;;13.92;67.44;95228.66;5009709;28;20065;-56
2021/04/28 07:45:18;;;;;;;13.80;10.95;;;;;;;14.60;64.47;95227.94;5007277;28;20065;-54
2021/04/28 07:47:45;;;;;;;14.80;11.40;;;;;;;13.94;67.08;95225.81;5005737;28;20066;-57
2021/04/28 07:50:16;;;;;;;15.45;11.65;;;;;;;14.16;66.15;95222.03;5008549;28;20069;-55
2021/04/28 07:52:45;;;;;;;14.27;11.07;;;;;;;14.75;61.89;95225.94;5003749;28;20062;-57
2021/04/28 07:55:12;;;;;;;12.45;10.57;;;;;;;14.94;61.96;95225.16;5004273;28;20085;-58
2021/04/28 07:57:43;;;;;;;15.02;10.90;;;;;;;14.47;66.05;95231.34;5011642;28;20077;-56
2021/04/28 08:00:12;;;;;;;13.73;11.38;;;;;;;15.10;61.52;95231.09;5004856;28;20089;-56
2021/04/28 08:02:39;;;;;;;12.25;10.38;;;;;;;14.23;67.61;95230.84;5008711;28;20084;-52
2021/04/28 08:05:08;;;;;;;13.07;11.30;;;;;;;14.61;64.68;95233.03;5007221;28;20084;-56
2021/04/28 08:07:36;;;;;;;13.95;10.20;;;;;;;14.82;62.96;95229.41;5007368;28;20069;-58
2021/04/28 08:10:05;;;;;;;14.93;10.80;;;;;;;15.06;62.77;95227.22;5000491;28;20100;-55
2021/04/28 08:12:33;;;;;;;15.20;11.10;;;;;;;15.21;60.75;95227.84;5011693;28;20081;-53
2021/04/28 08:15:01;;;;;;;12.45;10.88;;;;;;;15.12;61.10;95224.56;5005690;28;20062;-54
2021/04/28 08:17:29;;;;;;;15.93;11.48;;;;;;;14.82;62.59;95224.13;5008069;28;20520;-54
2021/04/28 08:19:57;;;;;;;13.93;10.70;;;;;;;14.76;64.59;95230.22;5007118;28;20084;-57
2021/04/28 08:22:25;;;;;;;13.20;10.57;;;;;;;14.88;65.09;95231.28;5008347;28;20073;-56
2021/04/28 08:24:53;;;;;;;23.25;11.25;;;;;;;15.04;64.17;95227.44;5007301;28;20061;-55
2021/04/28 08:27:21;;;;;;;16.25;10.40;;;;;;;15.28;63.94;95231.34;5008806;28;20066;-56
2021/04/28 08:29:49;;;;;;;14.73;10.48;;;;;;;14.69;67.36;95227.56;5005148;28;20550;-59
2021/04/28 08:32:17;;;;;;;14.63;11.18;;;;;;;15.04;64.61;95224.78;5007863;28;20126;-57
2021/04/28 08:34:46;;;;;;;15.27;11.45;;;;;;;15.31;61.78;95224.78;5004700;28;20070;-55
2021/04/28 08:37:13;;;;;;;13.98;10.27;;;;;;;15.57;60.99;95221.31;5008257;28;20092;-55
2021/04/28 08:39:41;;;;;;;16.70;10.73;;;;;;;16.20;58.59;95218.13;5007036;28;20069;-55
2021/04/28 08:42:10;;;;;;;12.65;10.38;;;;;;;16.29;57.10;95220.34;5007102;28;20072;-51
2021/04/28 08:44:38;;;;;;;12.98;10.57;;;;;;;15.83;57.49;95223.16;5007205;28;20100;-55
2021/04/28 08:47:08;;;;;;;14.18;10.88;;;;;;;15.37;61.52;95231.94;5005813;28;20474;-52
2021/04/28 08:49:37;;;;;;;15.32;10.57;;;;;;;15.92;58.48;95229.03;5007674;28;20165;-51
2021/04/28 08:52:05;;;;;;;12.02;9.95;;;;;;;15.50;59.82;95223.97;4998193;28;20077;-55
2021/04/28 08:54:47;;;;;;;13.68;10.57;;;;;;;16.07;59.37;95219.81;5010209;28;20532;-55
2021/04/28 08:57:14;;;;;;;12.57;9.82;;;;;;;16.47;56.47;95227.63;5005898;28;20077;-57
2021/04/28 08:59:42;;;;;;;13.45;10.82;;;;;;;16.41;54.90;95223.16;5007173;28;20078;-57
2021/04/28 09:02:16;;;;;;;12.60;10.52;;;;;;;16.45;55.70;95229.69;4994200;28;20076;-58
2021/04/28 09:05:04;;;;;;;13.30;11.00;;;;;;;16.34;55.06;95217.03;5009467;28;20456;-53
2021/04/28 09:07:32;;;;;;;11.93;10.43;;;;;;;16.64;56.81;95221.81;5005615;28;20061;-56
2021/04/28 09:10:01;;;;;;;14.98;10.63;;;;;;;16.81;54.48;95223.81;4991443;28;20073;-54
2021/04/28 09:12:28;;;;;;;15.27;10.98;;;;;;;17.43;52.35;95218.66;5005653;28;20457;-55
2021/04/28 09:14:56;;;;;;;11.90;10.20;;;;;;;17.02;54.36;95219.97;5007604;28;20542;-55
2021/04/28 09:17:23;;;;;;;14.50;10.70;;;;;;;17.11;53.03;95217.06;5004071;28;20066;-57
2021/04/28 09:20:02;;;;;;;13.57;10.25;;;;;;;16.86;54.09;95215.16;5008091;28;20076;-56
2021/04/28 09:22:30;;;;;;;15.02;10.35;;;;;;;16.93;53.31;95210.63;5005560;28;20070;-53
2021/04/28 09:24:57;;;;;;;15.57;10.73;;;;;;;16.80;53.70;95206.19;5007063;28;20086;-54
2021/04/28 09:27:27;;;;;;;16.45;10.60;;;;;;;17.29;53.69;95206.47;5006183;28;20073;-57
2021/04/28 09:29:54;;;;;;;13.33;10.43;;;;;;;17.32;52.49;95204.19;5006499;28;20456;-52
2021/04/28 09:32:30;;;;;;;16.52;10.77;;;;;;;17.43;51.84;95204.53;5004110;28;20081;-56
2021/04/28 09:35:13;;;;;;;14.25;10.68;;;;;;;17.67;50.67;95190.34;5008360;28;20080;-55
2021/04/28 09:37:51;;;;;;;12.00;10.07;;;;;;;17.51;52.28;95185.56;5000859;28;20076;-55
2021/04/28 09:40:19;;;;;;;13.70;10.88;;;;;;;17.88;51.62;95183.81;5005956;28;20465;-57
2021/04/28 09:42:53;;;;;;;13.38;9.75;;;;;;;17.44;52.06;95182.16;5007136;28;20484;-55
2021/04/28 09:45:40;;;;;;;18.27;11.43;;;;;;;17.50;49.50;95178.63;5007649;28;20061;-51
2021/04/28 09:48:11;;;;;;;12.52;10.15;;;;;;;17.42;50.98;95185.06;5004333;28;20081;-55
2021/04/28 09:50:39;;;;;;;17.98;11.13;;;;;;;17.79;49.95;95180.63;5005631;28;20069;-56
2021/04/28 09:53:07;;;;;;;13.43;11.07;;;;;;;17.65;50.55;95181.78;5005127;28;20554;-51
2021/04/28 09:55:45;;;;;;;14.82;10.63;;;;;;;18.00;47.44;95174.06;5008051;28;20072;-53
2021/04/28 09:58:13;;;;;;;14.68;10.88;;;;;;;17.85;48.63;95173.59;5004185;28;20066;-58
2021/04/28 10:00:41;;;;;;;12.50;10.43;;;;;;;18.25;48.00;95170.47;5007478;28;20751;-56
2021/04/28 10:03:12;;;;;;;18.63;11.05;;;;;;;18.39;47.51;95171.13;5004927;28;20471;-57
2021/04/28 10:05:41;;;;;;;15.57;11.50;;;;;;;17.94;48.74;95179.44;5009415;28;20081;-56
2021/04/28 10:08:15;;;;;;;15.52;10.10;;;;;;;18.18;47.64;95169.75;5006416;28;20070;-52
2021/04/28 10:10:44;;;;;;;13.60;10.70;;;;;;;18.68;45.53;95172.16;5007077;28;20538;-52
2021/04/28 10:13:12;;;;;;;13.75;10.48;;;;;;;18.88;47.02;95164.72;5004707;28;20088;-54
2021/04/28 10:15:39;;;;;;;15.00;11.02;;;;;;;18.97;44.66;95166.03;5008237;28;20092;-55
2021/04/28 10:18:09;;;;;;;13.30;10.60;;;;;;;19.20;44.44;95170.59;5006351;28;20074;-54
2021/04/28 10:20:39;;;;;;;16.10;10.32;;;;;;;18.85;45.31;95162.50;5004105;28;20073;-55
2021/04/28 10:23:08;;;;;;;13.38;10.25;;;;;;;19.33;44.41;95161.53;5007067;28;20085;-55
2021/04/28 10:25:38;;;;;;;17.80;11.10;;;;;;;19.05;43.48;95164.06;5001863;28;20073;-55
2021/04/28 10:28:09;;;;;;;15.57;10.77;;;;;;;18.78;43.13;95158.31;5007176;28;20078;-56
2021/04/28 10:30:38;;;;;;;13.60;11.02;;;;;;;18.74;44.00;95157.94;5004866;28;20092;-57
2021/04/28 10:33:08;;;;;;;14.18;10.27;;;;;;;19.24;41.28;95154.94;5005448;28;20527;-55
2021/04/28 10:35:36;;;;;;;15.82;10.68;;;;;;;18.90;40.06;95148.47;5004804;28;20108;-57
2021/04/28 10:38:03;;;;;;;16.40;10.90;;;;;;;19.21;39.38;95147.38;5006814;28;20081;-55
2021/04/28 10:40:31;;;;;;;14.25;10.90;;;;;;;18.88;41.28;95151.34;5001630;28;20092;-54
2021/04/28 10:43:08;;;;;;;17.00;10.93;;;;;;;19.01;40.42;95157.56;5007778;28;20085;-57
2021/04/28 10:45:38;;;;;;;17.38;9.77;;;;;;;19.42;39.74;95146.00;5000065;28;20497;-56
2021/04/28 10:48:39;;;;;;;17.75;11.25;;;;;;;19.17;39.46;95149.69;5003782;28;20132;-55
2021/04/28 10:51:06;;;;;;;18.35;10.63;;;;;;;19.55;39.81;95139.59;5002377;28;20100;-53
2021/04/28 10:53:34;;;;;;;18.25;11.73;;;;;;;19.48;39.00;95139.72;5007670;28;20527;-55
2021/04/28 10:56:08;;;;;;;13.32;10.38;;;;;;;19.73;39.24;95144.03;5003764;28;20467;-56
2021/04/28 10:58:41;;;;;;;14.85;10.77;;;;;;;19.42;37.78;95137.97;5005455;28;20069;-54
2021/04/28 11:01:13;;;;;;;14.15;10.30;;;;;;;19.99;38.48;95130.13;5003697;28;20527;-55
2021/04/28 11:03:45;;;;;;;21.20;11.07;;;;;;;20.14;36.93;95135.81;5010583;28;20084;-55
2021/04/28 11:06:30;;;;;;;15.57;10.90;;;;;;;20.05;38.29;95131.88;5007867;28;20084;-57
2021/04/28 11:09:15;;;;;;;14.23;9.80;;;;;;;20.02;35.92;95129.66;5008987;28;20084;-54
2021/04/28 11:11:45;;;;;;;14.55;10.30;;;;;;;20.44;35.30;95128.59;5007716;28;20550;-51
2021/04/28 11:14:36;;;;;;;17.73;11.32;;;;;;;19.80;36.26;95134.03;5009157;28;20476;-52
2021/04/28 11:17:23;;;;;;;16.40;10.02;;;;;;;19.67;34.64;95130.53;5007018;28;20181;-52
2021/04/28 11:19:51;;;;;;;15.48;10.63;;;;;;;20.22;35.69;95121.25;5008347;28;20077;-58
2021/04/28 11:22:28;;;;;;;15.05;10.65;;;;;;;20.06;35.79;95121.97;5007791;28;20076;-59
2021/04/28 11:25:02;;;;;;;17.00;10.93;;;;;;;20.32;35.14;95123.31;5011268;28;20077;-58